Time;durP1;ratioP1;P1;durP2;ratioP2;P2;SDS_P1;SDS_P2;PMS_P1;PMS_P2;Temp;Humidity;BMP_temperature;BMP_pressure;BME280_temperature;BME280_humidity;BME280_pressure;Samples;Min_cycle;Max_cycle;Signal;HPM_P1;HPM_P2
2022/12/08 05:06:59;;;;;;;25.80;14.75;;;;;;;3.39;84.54;100422.19;5606665;31;77483;-57
2022/12/08 05:10:02;;;;;;;23.85;14.45;;;;;;;3.29;82.65;100422.78;5603529;31;34049;-57
2022/12/08 05:13:05;;;;;;;22.87;15.35;;;;;;;3.40;79.23;100423.81;5602711;31;33520;-58
2022/12/08 05:16:10;;;;;;;24.27;15.57;;;;;;;3.49;79.11;100420.56;5603792;31;33647;-57
2022/12/08 05:19:13;;;;;;;25.42;15.50;;;;;;;3.55;86.44;100426.00;5603411;31;33568;-58
2022/12/08 05:22:15;;;;;;;23.55;14.95;;;;;;;3.43;79.73;100426.81;5603513;31;33700;-57
2022/12/08 05:25:17;;;;;;;20.35;14.00;;;;;;;3.60;78.91;100434.84;5603196;31;33207;-58
2022/12/08 05:28:20;;;;;;;27.30;15.55;;;;;;;3.67;77.34;100434.72;5602545;31;33578;-58
2022/12/08 05:31:42;;;;;;;21.02;14.00;;;;;;;3.54;78.74;100427.81;5603396;31;33270;-58
2022/12/08 05:34:45;;;;;;;24.30;15.32;;;;;;;3.70;77.63;100418.34;5603028;31;33647;-58
2022/12/08 05:37:47;;;;;;;23.83;15.15;;;;;;;3.60;77.98;100416.28;5603197;31;34453;-58
2022/12/08 05:40:49;;;;;;;21.77;15.27;;;;;;;3.69;77.25;100409.59;5603304;31;33703;-58
2022/12/08 05:43:51;;;;;;;26.90;15.90;;;;;;;3.76;88.95;100399.66;5603035;31;33626;-58
2022/12/08 05:46:54;;;;;;;25.60;15.40;;;;;;;3.59;80.02;100392.69;5583510;31;34361;-58
2022/12/08 05:49:56;;;;;;;21.08;15.00;;;;;;;3.85;76.68;100394.81;5583038;31;33705;-58
2022/12/08 05:52:58;;;;;;;23.33;15.23;;;;;;;3.66;77.67;100404.75;5587244;31;33600;-58
2022/12/08 05:56:00;;;;;;;22.98;15.27;;;;;;;3.60;77.46;100408.34;5576056;31;33539;-58
2022/12/08 05:59:06;;;;;;;24.87;15.02;;;;;;;3.75;89.54;100408.66;5583186;32;33684;-58
2022/12/08 06:02:08;;;;;;;25.02;15.85;;;;;;;3.74;80.53;100408.88;5579838;32;34179;-57
2022/12/08 06:05:11;;;;;;;22.95;16.80;;;;;;;3.65;79.56;100412.97;5580650;31;33784;-58
2022/12/08 06:08:14;;;;;;;22.62;16.95;;;;;;;3.62;80.78;100411.56;5581822;31;34235;-57
2022/12/08 06:11:28;;;;;;;25.58;16.52;;;;;;;3.74;79.29;100411.53;5581887;31;33300;-58
2022/12/08 06:14:31;;;;;;;25.45;16.52;;;;;;;3.63;81.34;100418.47;5590313;31;34406;-57
2022/12/08 06:17:33;;;;;;;26.65;16.90;;;;;;;3.53;84.63;100420.91;5571907;31;33414;-58
2022/12/08 06:20:35;;;;;;;29.60;17.37;;;;;;;3.66;79.80;100423.31;5566798;32;33584;-57
2022/12/08 06:23:38;;;;;;;25.02;18.23;;;;;;;3.76;90.95;100426.19;5566225;31;34481;-57
2022/12/08 06:26:40;;;;;;;28.10;17.40;;;;;;;3.76;85.63;100426.19;5568190;31;33620;-57
2022/12/08 06:29:43;;;;;;;29.63;17.42;;;;;;;3.85;80.22;100423.19;5570002;32;33798;-58
2022/12/08 06:32:45;;;;;;;29.12;18.98;;;;;;;3.81;82.91;100424.66;5570611;31;33637;-57
2022/12/08 06:35:47;;;;;;;30.45;19.67;;;;;;;3.96;78.67;100428.44;5569673;31;33579;-57
2022/12/08 06:38:50;;;;;;;31.62;20.77;;;;;;;3.90;83.51;100436.53;5567393;31;35381;-58
2022/12/08 06:45:15;;;;;;;38.05;21.85;;;;;;;3.91;82.20;100438.16;5559658;31;33585;-57
2022/12/08 06:48:18;;;;;;;41.95;22.27;;;;;;;3.93;81.10;100436.87;5565902;31;33592;-58
2022/12/08 06:51:22;;;;;;;37.90;23.23;;;;;;;4.05;80.87;100433.37;5566811;32;33461;-58
2022/12/08 06:54:26;;;;;;;41.40;25.95;;;;;;;4.07;86.60;100431.28;5568428;31;33665;-57
2022/12/08 06:57:28;;;;;;;35.38;22.50;;;;;;;4.05;82.59;100436.84;5573259;31;34313;-57
2022/12/08 07:00:30;;;;;;;40.05;24.00;;;;;;;4.19;80.24;100442.69;5564988;31;33252;-57
2022/12/08 07:03:33;;;;;;;47.17;25.40;;;;;;;4.22;79.94;100442.22;5568299;31;34286;-57
2022/12/08 07:06:36;;;;;;;36.97;24.67;;;;;;;4.24;80.40;100442.78;5567418;32;32997;-58
2022/12/08 07:09:39;;;;;;;44.38;24.52;;;;;;;4.16;80.50;100437.84;5577986;31;34402;-58
2022/12/08 07:12:41;;;;;;;41.67;24.33;;;;;;;4.12;82.43;100436.72;5568727;31;33250;-57
2022/12/08 07:15:43;;;;;;;35.65;25.33;;;;;;;4.28;80.80;100437.81;5567055;32;33535;-58
2022/12/08 07:18:46;;;;;;;40.03;25.37;;;;;;;4.36;80.02;100445.38;5574599;31;33695;-57
2022/12/08 07:21:48;;;;;;;42.40;24.05;;;;;;;4.24;83.01;100438.28;5576235;31;34269;-57
2022/12/08 07:24:50;;;;;;;41.20;24.25;;;;;;;4.29;82.18;100434.09;5570538;31;33624;-57
2022/12/08 07:27:52;;;;;;;43.45;24.75;;;;;;;4.38;86.50;100433.50;5566399;31;33011;-57
2022/12/08 07:30:54;;;;;;;42.00;26.08;;;;;;;4.43;84.32;100432.75;5577212;31;33752;-57
2022/12/08 07:33:57;;;;;;;45.85;26.67;;;;;;;4.43;84.16;100430.91;5566588;32;33640;-57
2022/12/08 07:37:00;;;;;;;38.60;25.67;;;;;;;4.54;83.24;100436.44;5569291;31;34251;-58
2022/12/08 07:40:07;;;;;;;44.63;27.45;;;;;;;4.59;81.66;100433.84;5567573;32;33566;-57
2022/12/08 07:43:09;;;;;;;40.45;26.50;;;;;;;4.65;81.50;100428.38;5566064;31;34327;-57
2022/12/08 07:46:14;;;;;;;41.40;25.17;;;;;;;4.66;80.80;100427.34;5570186;31;34236;-57
2022/12/08 07:49:17;;;;;;;40.25;26.30;;;;;;;4.62;81.62;100434.16;5568035;32;34384;-58
2022/12/08 07:52:19;;;;;;;38.90;26.73;;;;;;;4.70;81.61;100427.66;5567578;31;33632;-58
2022/12/08 07:55:24;;;;;;;39.13;26.35;;;;;;;4.76;81.07;100421.38;5568678;31;33690;-57
2022/12/08 07:58:26;;;;;;;42.00;27.52;;;;;;;4.81;81.92;100423.34;5563258;31;34855;-58
2022/12/08 08:01:32;;;;;;;41.45;27.98;;;;;;;4.87;81.54;100425.84;5568810;31;33670;-58
2022/12/08 08:04:34;;;;;;;42.92;28.92;;;;;;;4.92;80.79;100428.56;5567551;31;33565;-57
2022/12/08 08:07:37;;;;;;;47.25;30.35;;;;;;;4.83;81.80;100429.19;5565634;32;34189;-57
2022/12/08 08:10:39;;;;;;;46.85;29.40;;;;;;;5.03;80.87;100431.38;5566991;31;33214;-57
2022/12/08 08:13:41;;;;;;;43.80;29.12;;;;;;;5.11;80.65;100429.12;5566809;32;34288;-58
2022/12/08 08:16:46;;;;;;;46.30;28.92;;;;;;;5.26;79.43;100425.09;5568953;32;33703;-57
2022/12/08 08:19:48;;;;;;;41.88;28.62;;;;;;;5.36;78.62;100422.56;5568498;31;34245;-57
2022/12/08 08:22:51;;;;;;;40.50;28.70;;;;;;;5.50;79.24;100421.19;5567308;32;33163;-57
2022/12/08 08:25:53;;;;;;;42.00;28.30;;;;;;;5.50;78.77;100421.19;5564596;31;33602;-57
2022/12/08 08:28:55;;;;;;;43.85;28.98;;;;;;;5.55;78.72;100413.28;5563966;31;32195;-57
2022/12/08 08:31:58;;;;;;;40.35;27.33;;;;;;;5.58;78.61;100407.47;5569535;31;33768;-57
2022/12/08 08:35:02;;;;;;;43.20;26.30;;;;;;;5.61;78.92;100420.28;5565669;32;34366;-58
2022/12/08 08:38:04;;;;;;;44.42;27.98;;;;;;;5.61;78.59;100411.50;5566749;32;33697;-57
2022/12/08 08:41:10;;;;;;;45.15;26.62;;;;;;;5.80;78.35;100410.16;5568446;31;33702;-57
2022/12/08 08:44:13;;;;;;;38.75;27.42;;;;;;;5.84;77.19;100421.91;5566652;32;33676;-58
2022/12/08 08:47:16;;;;;;;43.03;26.90;;;;;;;5.85;78.14;100417.38;5566468;32;34488;-58
2022/12/08 08:50:18;;;;;;;44.38;22.85;;;;;;;5.87;78.07;100412.63;5568574;31;33553;-58
2022/12/08 08:53:21;;;;;;;34.08;23.48;;;;;;;6.30;100.00;100403.00;5564599;32;34006;-57
2022/12/08 08:56:23;;;;;;;31.52;20.98;;;;;;;6.22;77.65;100414.09;5562780;32;33590;-58
2022/12/08 08:59:27;;;;;;;33.00;21.40;;;;;;;6.32;75.68;100412.38;5564918;31;34336;-57
2022/12/08 09:02:29;;;;;;;37.92;23.17;;;;;;;6.64;94.04;100402.78;5563301;31;33139;-57
2022/12/08 09:05:31;;;;;;;35.13;21.95;;;;;;;6.70;76.08;100399.91;5567843;31;33596;-57
2022/12/08 09:08:33;;;;;;;36.47;23.60;;;;;;;7.03;87.07;100404.16;5562380;31;33699;-58
2022/12/08 09:11:36;;;;;;;35.80;22.85;;;;;;;6.79;71.95;100395.72;5568308;31;34428;-58
2022/12/08 09:14:39;;;;;;;37.58;22.15;;;;;;;6.67;70.69;100404.94;5562224;32;34209;-58
2022/12/08 09:17:41;;;;;;;35.13;23.25;;;;;;;6.52;70.40;100406.44;5562121;32;31898;-58
2022/12/08 09:20:43;;;;;;;36.38;24.60;;;;;;;6.62;93.45;100389.72;5567618;32;34256;-58
2022/12/08 09:23:45;;;;;;;33.45;23.40;;;;;;;6.86;85.10;100382.19;5559292;32;33701;-58
2022/12/08 09:26:48;;;;;;;48.65;26.15;;;;;;;6.74;74.62;100374.38;5569448;31;33772;-58
2022/12/08 09:29:50;;;;;;;41.40;24.60;;;;;;;6.84;71.71;100397.63;5571576;31;33623;-57
2022/12/08 09:32:52;;;;;;;36.88;24.90;;;;;;;6.68;71.31;100388.69;5566529;32;33824;-58
2022/12/08 09:35:55;;;;;;;38.42;24.30;;;;;;;6.57;71.34;100398.47;5563574;31;34326;-58
2022/12/08 09:38:57;;;;;;;40.08;25.33;;;;;;;6.43;75.90;100391.97;5565364;31;35839;-57
2022/12/08 09:42:03;;;;;;;34.55;23.25;;;;;;;6.45;74.89;100389.03;5563187;32;34057;-58
2022/12/08 09:45:15;;;;;;;41.60;23.47;;;;;;;6.52;76.57;100385.13;5566494;31;33691;-57
2022/12/08 09:48:32;;;;;;;33.63;21.25;;;;;;;6.79;88.79;100369.09;5564753;31;33757;-57
2022/12/08 09:51:39;;;;;;;34.05;22.50;;;;;;;7.11;76.43;100354.09;5564589;32;34324;-57
2022/12/08 09:54:41;;;;;;;28.75;20.77;;;;;;;6.95;71.58;100347.88;5564957;31;34321;-57
2022/12/08 09:57:45;;;;;;;34.67;20.85;;;;;;;6.95;83.44;100353.19;5567452;32;34223;-57
2022/12/08 10:00:48;;;;;;;33.03;20.92;;;;;;;7.07;76.75;100351.16;5562670;31;34375;-58
2022/12/08 10:03:51;;;;;;;26.40;19.83;;;;;;;7.17;76.92;100353.06;5568361;31;33550;-57
2022/12/08 10:06:58;;;;;;;27.95;18.60;;;;;;;6.98;70.91;100356.16;5566647;32;32950;-57
2022/12/08 10:10:36;;;;;;;25.60;17.80;;;;;;;7.07;73.56;100338.63;5566779;32;33712;-57
2022/12/08 10:13:51;;;;;;;26.33;17.95;;;;;;;6.94;78.95;100354.25;5554855;31;33708;-57
2022/12/08 10:17:03;;;;;;;25.48;17.70;;;;;;;6.93;78.42;100355.34;5564038;32;34443;-58
2022/12/08 10:20:14;;;;;;;24.87;17.00;;;;;;;6.92;70.71;100351.88;5565691;32;33051;-58
2022/12/08 10:23:33;;;;;;;26.62;17.42;;;;;;;6.88;70.08;100357.94;5561825;31;33758;-57
2022/12/08 10:26:35;;;;;;;24.17;17.05;;;;;;;6.97;79.99;100343.88;5565709;32;33718;-57
2022/12/08 10:29:39;;;;;;;24.27;16.55;;;;;;;6.97;71.34;100348.41;5567428;31;33735;-57
2022/12/08 10:32:44;;;;;;;24.58;16.75;;;;;;;6.95;68.31;100345.19;5560314;31;33214;-57
2022/12/08 10:35:53;;;;;;;23.52;15.55;;;;;;;6.90;73.41;100337.97;5561140;31;33814;-58
2022/12/08 10:38:55;;;;;;;20.50;15.05;;;;;;;7.18;73.79;100325.34;5573522;31;34353;-57
2022/12/08 10:42:07;;;;;;;25.10;16.27;;;;;;;7.31;80.17;100324.87;5570426;31;33623;-57
2022/12/08 10:45:26;;;;;;;24.90;16.65;;;;;;;7.23;73.13;100312.84;5569107;32;33818;-58
2022/12/08 10:48:32;;;;;;;25.95;16.58;;;;;;;7.23;84.57;100306.72;5567821;32;33727;-58
2022/12/08 10:51:40;;;;;;;25.10;17.03;;;;;;;7.31;67.52;100298.22;5564975;31;33759;-57
2022/12/08 10:54:42;;;;;;;25.58;17.00;;;;;;;7.42;66.89;100297.22;5549986;32;33776;-57
2022/12/08 10:57:47;;;;;;;24.52;16.60;;;;;;;7.39;65.06;100283.59;5554777;31;33779;-58
2022/12/08 11:00:54;;;;;;;26.30;16.98;;;;;;;7.22;66.03;100289.13;5571539;31;33629;-57
2022/12/08 11:04:02;;;;;;;28.35;16.15;;;;;;;7.16;66.14;100282.16;5577715;31;33681;-57
2022/12/08 11:07:07;;;;;;;23.67;14.73;;;;;;;7.21;64.90;100274.97;5567788;32;33717;-58
2022/12/08 11:10:17;;;;;;;18.40;12.88;;;;;;;7.01;65.96;100273.00;5566773;32;33888;-57
2022/12/08 11:13:26;;;;;;;20.05;13.10;;;;;;;7.16;75.42;100276.84;5569054;31;33318;-57
2022/12/08 11:16:28;;;;;;;19.08;12.37;;;;;;;7.46;84.76;100262.81;5563146;31;33566;-57
2022/12/08 11:19:36;;;;;;;20.55;12.13;;;;;;;7.32;66.60;100251.84;5565852;31;33924;-58
2022/12/08 11:22:39;;;;;;;21.62;14.10;;;;;;;7.24;64.93;100241.66;5563936;31;33751;-58
2022/12/08 11:25:42;;;;;;;24.98;14.52;;;;;;;7.47;81.27;100246.53;5565413;32;34410;-58
2022/12/08 11:28:45;;;;;;;22.90;14.60;;;;;;;7.51;65.31;100239.59;5561654;31;33786;-58
2022/12/08 11:31:53;;;;;;;20.00;15.02;;;;;;;7.61;74.14;100228.16;5567639;31;32960;-58
2022/12/08 11:35:02;;;;;;;22.95;15.57;;;;;;;7.62;80.83;100226.31;5566086;31;34091;-57
2022/12/08 11:38:12;;;;;;;22.60;15.57;;;;;;;7.64;82.60;100211.62;5566120;31;33723;-58
2022/12/08 11:41:30;;;;;;;21.48;14.73;;;;;;;7.68;79.78;100193.22;5566849;31;33696;-58
2022/12/08 11:44:41;;;;;;;22.05;15.57;;;;;;;7.63;66.24;100186.03;5566598;32;33699;-58
2022/12/08 11:47:48;;;;;;;27.52;16.17;;;;;;;7.46;63.29;100186.25;5566986;31;34008;-58
2022/12/08 11:51:07;;;;;;;22.95;16.25;;;;;;;7.29;68.73;100191.81;5566234;32;33713;-58
2022/12/08 11:54:25;;;;;;;22.05;15.75;;;;;;;7.40;67.99;100186.50;5568500;32;33699;-58
2022/12/08 11:57:28;;;;;;;24.58;15.52;;;;;;;7.41;72.48;100188.09;5564275;32;33751;-58
2022/12/08 12:00:31;;;;;;;22.67;14.95;;;;;;;7.34;70.54;100185.69;5571823;31;33863;-58
2022/12/08 12:03:42;;;;;;;27.15;16.62;;;;;;;7.48;78.84;100180.66;5573795;31;34296;-57
2022/12/08 12:07:18;;;;;;;21.77;14.68;;;;;;;7.64;63.82;100181.47;5563510;32;34401;-57
2022/12/08 12:10:34;;;;;;;23.33;15.63;;;;;;;7.69;68.85;100186.84;5564669;32;33854;-57
2022/12/08 12:14:08;;;;;;;21.65;14.80;;;;;;;7.72;72.36;100184.44;5567054;32;33305;-57
2022/12/08 12:17:43;;;;;;;25.88;16.25;;;;;;;7.51;62.82;100186.25;5559357;31;33294;-57
2022/12/08 12:20:58;;;;;;;19.70;13.82;;;;;;;7.66;74.19;100190.81;5556494;31;34533;-58
2022/12/08 12:24:29;;;;;;;21.52;15.60;;;;;;;7.74;83.47;100187.62;5565804;31;33727;-57
2022/12/08 12:27:39;;;;;;;21.55;14.80;;;;;;;7.63;70.89;100186.03;5554476;31;33287;-57
2022/12/08 12:31:10;;;;;;;21.05;15.00;;;;;;;7.67;71.69;100186.28;5569931;31;33661;-57
2022/12/08 12:34:35;;;;;;;22.00;15.52;;;;;;;7.69;64.81;100184.16;5563419;31;33330;-57
2022/12/08 12:37:41;;;;;;;24.30;14.82;;;;;;;7.51;68.20;100183.59;5566707;32;32172;-57
2022/12/08 12:40:43;;;;;;;25.75;15.18;;;;;;;7.35;70.42;100189.16;5567900;31;33724;-58
2022/12/08 12:44:21;;;;;;;21.52;14.80;;;;;;;7.30;65.74;100189.97;5566443;31;33513;-58
2022/12/08 12:47:49;;;;;;;24.95;16.92;;;;;;;7.58;78.80;100187.88;5549781;31;33434;-57
2022/12/08 12:50:57;;;;;;;23.12;15.25;;;;;;;7.64;76.10;100179.59;5570884;31;33796;-58
2022/12/08 12:54:23;;;;;;;25.55;14.95;;;;;;;7.55;68.99;100175.87;5566336;31;33767;-58
2022/12/08 12:57:36;;;;;;;24.02;16.23;;;;;;;7.60;74.26;100159.88;5566896;31;33372;-57
2022/12/08 13:00:38;;;;;;;22.23;16.65;;;;;;;7.72;67.88;100149.75;5569786;31;34271;-58
2022/12/08 13:04:01;;;;;;;21.62;15.00;;;;;;;7.38;78.96;100154.75;5567050;32;33687;-58
2022/12/08 13:07:04;;;;;;;26.05;16.92;;;;;;;7.52;77.68;100163.88;5567343;32;33635;-59
2022/12/08 13:10:28;;;;;;;23.58;16.17;;;;;;;7.22;63.92;100155.81;5567408;32;34354;-58
2022/12/08 13:13:30;;;;;;;25.30;16.50;;;;;;;6.96;65.81;100147.75;5567693;32;33812;-57
2022/12/08 13:16:37;;;;;;;25.90;15.95;;;;;;;7.30;72.24;100144.63;5566148;32;34005;-57
2022/12/08 13:19:40;;;;;;;20.92;14.65;;;;;;;7.47;76.13;100150.50;5563371;32;33673;-57
2022/12/08 13:23:02;;;;;;;26.08;15.13;;;;;;;7.80;80.99;100140.41;5563621;32;34445;-57
2022/12/08 13:26:15;;;;;;;20.85;14.82;;;;;;;7.85;77.69;100139.63;5566903;32;34191;-57
2022/12/08 13:29:25;;;;;;;20.27;14.73;;;;;;;7.56;67.40;100137.47;5569075;32;34373;-58
2022/12/08 13:32:27;;;;;;;21.17;13.93;;;;;;;7.77;72.42;100132.94;5570174;32;33901;-58
2022/12/08 13:35:29;;;;;;;21.02;14.27;;;;;;;7.89;68.81;100138.00;5569785;32;33856;-57
2022/12/08 13:38:35;;;;;;;20.65;14.57;;;;;;;7.79;61.61;100144.16;5567741;32;34394;-57
2022/12/08 13:41:46;;;;;;;20.65;12.77;;;;;;;7.81;66.91;100151.88;5566515;32;34087;-58
2022/12/08 13:44:55;;;;;;;22.02;13.88;;;;;;;7.54;64.05;100148.38;5569343;32;33663;-58
2022/12/08 13:48:25;;;;;;;18.83;13.35;;;;;;;7.50;82.62;100152.66;5569958;32;34389;-58
2022/12/08 13:51:51;;;;;;;18.15;12.63;;;;;;;7.67;66.44;100141.72;5568271;32;33763;-58
2022/12/08 13:55:21;;;;;;;20.75;13.30;;;;;;;7.79;80.44;100138.81;5569573;32;33818;-57
2022/12/08 13:58:43;;;;;;;20.50;13.52;;;;;;;8.02;73.73;100142.81;5569822;32;34298;-58
2022/12/08 14:01:49;;;;;;;19.83;14.20;;;;;;;8.02;63.46;100137.47;5568849;32;34196;-58
2022/12/08 14:04:54;;;;;;;20.02;13.88;;;;;;;7.77;62.07;100133.72;5570408;32;33656;-58
2022/12/08 14:08:24;;;;;;;20.42;14.87;;;;;;;7.89;83.93;100138.81;5569945;32;34120;-58
2022/12/08 14:11:54;;;;;;;20.73;14.30;;;;;;;7.90;67.99;100139.59;5570285;32;33363;-57
2022/12/08 14:15:03;;;;;;;19.95;13.75;;;;;;;7.93;75.43;100137.19;5570394;32;33498;-57
2022/12/08 14:18:25;;;;;;;20.15;13.43;;;;;;;7.81;64.62;100133.97;5570123;32;34444;-58
2022/12/08 14:21:28;;;;;;;21.27;13.60;;;;;;;7.91;77.45;100135.84;5570467;32;33937;-58
2022/12/08 14:24:37;;;;;;;18.55;13.48;;;;;;;7.82;71.99;100134.81;5569986;32;33579;-58
2022/12/08 14:27:39;;;;;;;20.17;13.55;;;;;;;7.48;63.51;100148.66;5570202;32;33664;-58
2022/12/08 14:30:42;;;;;;;19.05;13.93;;;;;;;7.52;74.98;100147.88;5570138;32;34063;-57
2022/12/08 14:33:45;;;;;;;19.73;13.43;;;;;;;7.52;62.31;100144.41;5569823;32;33739;-57
2022/12/08 14:36:54;;;;;;;20.30;14.98;;;;;;;7.40;69.83;100143.84;5569371;32;34483;-58
2022/12/08 14:40:01;;;;;;;19.42;13.77;;;;;;;7.75;82.75;100151.09;5570049;32;34508;-58
2022/12/08 14:43:13;;;;;;;22.92;14.70;;;;;;;7.81;73.47;100146.53;5569013;32;33754;-58
2022/12/08 14:46:21;;;;;;;26.23;14.55;;;;;;;7.73;66.69;100137.19;5569808;32;33772;-57
2022/12/08 14:49:36;;;;;;;25.30;15.20;;;;;;;7.62;65.88;100146.28;5569751;32;33740;-58
2022/12/08 14:52:43;;;;;;;20.37;13.93;;;;;;;7.61;61.58;100145.47;5569769;32;33821;-58
2022/12/08 14:55:47;;;;;;;21.70;14.50;;;;;;;7.63;68.11;100150.53;5570034;32;33583;-58
2022/12/08 14:59:05;;;;;;;19.75;13.55;;;;;;;7.61;63.17;100142.78;5569765;32;33749;-58
2022/12/08 15:02:24;;;;;;;22.02;13.65;;;;;;;7.83;71.21;100137.19;5569372;32;33723;-58
2022/12/08 15:05:30;;;;;;;20.42;13.55;;;;;;;7.65;80.69;100137.72;5568694;32;33727;-58
2022/12/08 15:08:34;;;;;;;22.92;15.55;;;;;;;7.70;73.48;100133.19;5569533;32;33622;-58
2022/12/08 15:11:36;;;;;;;22.92;14.95;;;;;;;7.46;62.14;100137.47;5569696;32;33674;-58
2022/12/08 15:14:55;;;;;;;21.55;14.40;;;;;;;7.65;79.32;100130.53;5569849;32;33663;-58
2022/12/08 15:18:11;;;;;;;25.50;15.48;;;;;;;7.90;81.38;100140.41;5570015;32;33621;-58
2022/12/08 15:21:13;;;;;;;24.02;15.88;;;;;;;7.82;69.89;100132.16;5569913;32;34377;-58
2022/12/08 15:24:17;;;;;;;25.70;15.82;;;;;;;7.66;69.12;100126.78;5569896;32;33314;-58
2022/12/08 15:27:21;;;;;;;21.23;15.30;;;;;;;7.48;64.57;100130.81;5569886;32;33820;-58
2022/12/08 15:30:27;;;;;;;23.33;14.75;;;;;;;7.55;69.08;100138.53;5569405;32;33809;-58
2022/12/08 15:33:29;;;;;;;20.95;14.73;;;;;;;7.59;71.59;100126.28;5569739;32;33970;-58
2022/12/08 15:36:31;;;;;;;25.98;16.12;;;;;;;7.74;80.67;100118.25;5569722;32;34339;-58
2022/12/08 15:39:36;;;;;;;23.77;15.85;;;;;;;7.88;69.40;100125.72;5569791;32;33514;-58
2022/12/08 15:42:38;;;;;;;23.45;16.62;;;;;;;7.18;63.64;100117.41;5569536;32;34323;-58
2022/12/08 15:45:41;;;;;;;20.33;14.80;;;;;;;7.00;66.46;100127.50;5569669;32;34495;-58
2022/12/08 15:48:55;;;;;;;22.33;15.27;;;;;;;7.19;80.13;100114.50;5568318;32;33766;-57
2022/12/08 15:51:59;;;;;;;23.90;16.02;;;;;;;7.34;71.38;100102.22;5569645;32;33687;-58
2022/12/08 15:55:14;;;;;;;25.62;15.32;;;;;;;7.49;69.03;100099.59;5569632;32;34335;-58
2022/12/08 15:58:22;;;;;;;22.10;16.50;;;;;;;7.43;74.75;100108.66;5569493;32;33746;-58
2022/12/08 16:01:45;;;;;;;24.15;16.05;;;;;;;7.70;81.82;100113.72;5569566;32;33772;-58
2022/12/08 16:04:48;;;;;;;22.70;16.67;;;;;;;7.46;66.34;100106.25;5569268;32;33966;-58
2022/12/08 16:08:14;;;;;;;25.45;16.80;;;;;;;7.30;72.99;100129.44;5568178;32;34220;-58
2022/12/08 16:15:09;;;;;;;24.15;16.85;;;;;;;7.33;76.90;100112.09;5566640;32;33700;-58
2022/12/08 16:18:35;;;;;;;33.85;17.02;;;;;;;7.13;74.32;100112.88;5566740;32;34363;-57
2022/12/08 16:21:37;;;;;;;23.10;17.20;;;;;;;7.52;86.17;100118.53;5567503;32;34313;-58
2022/12/08 16:24:59;;;;;;;23.10;17.95;;;;;;;7.54;72.52;100116.38;5569196;32;34102;-58
2022/12/08 16:28:18;;;;;;;24.02;17.52;;;;;;;7.27;81.11;100105.16;5569141;32;33765;-58
2022/12/08 16:31:41;;;;;;;21.35;15.40;;;;;;;7.24;77.93;100087.81;5567887;32;33686;-58
2022/12/08 16:34:43;;;;;;;21.85;16.33;;;;;;;7.21;85.93;100091.00;5569137;32;33628;-58
2022/12/08 16:37:45;;;;;;;19.92;14.13;;;;;;;7.84;89.38;100087.28;5569092;32;33886;-58
2022/12/08 16:44:08;;;;;;;20.27;13.40;;;;;;;8.19;75.16;100086.44;5569133;32;33755;-58
2022/12/08 16:47:10;;;;;;;20.65;14.35;;;;;;;8.36;81.15;100096.78;5569075;32;33837;-58
2022/12/08 16:50:27;;;;;;;22.33;14.85;;;;;;;8.23;67.71;100098.16;5569031;32;33692;-58
2022/12/08 16:53:29;;;;;;;18.58;13.88;;;;;;;7.95;81.34;100104.91;5568791;32;33799;-58
